WMKP/PEN METAR and TAF weather

Enter ICAO airport designator
Station Type Date Time Source
WMKP METAR 2024/07/24 12:00 UTC NOAA

WMKP 241200Z 21004KT 8000 FEW020 31/25 Q1006 NOSIG


Station Type Date Time Source
WMKP Decoded METAR 2024/07/24 12:00 UTC NOAA

Penang / Bayan Lepas, Malaysia (WMKP) 05-18N 100-16E 4M
Jul 24, 2024 - 08:00 AM EDT / 2024.07.24 1200 UTC
Wind: from the SSW (210 degrees) at 5 MPH (4 KT):0
Visibility: 4 mile(s):0
Sky conditions: mostly clear
Temperature: 87 F (31 C)
Heat index: 97.5 F (36.4 C):1
Dew Point: 77 F (25 C)
Relative Humidity: 70%
Pressure (altimeter): 29.71 in. Hg (1006 hPa)
ob: WMKP 241200Z 21004KT 8000 FEW020 31/25 Q1006 NOSIG
cycle: 12

Station Type Date Time Source
WMKP TAF 2024/07/24 12:09 UTC NOAA